sensor_id;sensor_type;location;lat;lon;timestamp;P1;durP1;ratioP1;P2;durP2;ratioP2
6432;SDS011;3249;42.690;23.260;2023-12-29T00:01:59;55.47;;;37.23;;
6432;SDS011;3249;42.690;23.260;2023-12-29T00:04:31;55.43;;;35.57;;
6432;SDS011;3249;42.690;23.260;2023-12-29T00:07:00;54.07;;;35.23;;
6432;SDS011;3249;42.690;23.260;2023-12-29T00:09:31;58.13;;;36.57;;
6432;SDS011;3249;42.690;23.260;2023-12-29T00:12:06;62.13;;;36.97;;
6432;SDS011;3249;42.690;23.260;2023-12-29T00:14:36;61.20;;;37.33;;
6432;SDS011;3249;42.690;23.260;2023-12-29T00:17:07;50.40;;;32.93;;
6432;SDS011;3249;42.690;23.260;2023-12-29T00:19:39;46.53;;;33.70;;
6432;SDS011;3249;42.690;23.260;2023-12-29T00:22:09;48.83;;;33.47;;
6432;SDS011;3249;42.690;23.260;2023-12-29T00:24:38;51.93;;;34.33;;
6432;SDS011;3249;42.690;23.260;2023-12-29T00:27:08;47.33;;;32.27;;
6432;SDS011;3249;42.690;23.260;2023-12-29T00:29:37;52.77;;;32.13;;
6432;SDS011;3249;42.690;23.260;2023-12-29T00:32:06;48.73;;;33.23;;
6432;SDS011;3249;42.690;23.260;2023-12-29T00:34:35;50.00;;;33.53;;
6432;SDS011;3249;42.690;23.260;2023-12-29T00:37:08;52.60;;;33.93;;
6432;SDS011;3249;42.690;23.260;2023-12-29T00:39:37;45.60;;;32.70;;
6432;SDS011;3249;42.690;23.260;2023-12-29T00:42:06;59.10;;;35.00;;
6432;SDS011;3249;42.690;23.260;2023-12-29T00:44:36;50.33;;;35.27;;
6432;SDS011;3249;42.690;23.260;2023-12-29T00:47:05;48.37;;;34.90;;
6432;SDS011;3249;42.690;23.260;2023-12-29T00:49:40;52.07;;;37.67;;
6432;SDS011;3249;42.690;23.260;2023-12-29T00:52:10;53.70;;;37.53;;
6432;SDS011;3249;42.690;23.260;2023-12-29T00:54:40;64.90;;;39.67;;
6432;SDS011;3249;42.690;23.260;2023-12-29T00:57:09;70.87;;;44.27;;
6432;SDS011;3249;42.690;23.260;2023-12-29T00:59:39;86.03;;;51.13;;
6432;SDS011;3249;42.690;23.260;2023-12-29T01:02:09;63.07;;;41.73;;
6432;SDS011;3249;42.690;23.260;2023-12-29T01:04:41;61.97;;;39.27;;
6432;SDS011;3249;42.690;23.260;2023-12-29T01:07:11;57.60;;;37.87;;
6432;SDS011;3249;42.690;23.260;2023-12-29T01:09:41;55.63;;;38.53;;
6432;SDS011;3249;42.690;23.260;2023-12-29T01:12:10;74.93;;;49.70;;
6432;SDS011;3249;42.690;23.260;2023-12-29T01:14:40;67.53;;;44.87;;
6432;SDS011;3249;42.690;23.260;2023-12-29T01:17:10;73.17;;;45.20;;
6432;SDS011;3249;42.690;23.260;2023-12-29T01:19:42;75.63;;;45.17;;
6432;SDS011;3249;42.690;23.260;2023-12-29T01:22:12;84.53;;;51.43;;
6432;SDS011;3249;42.690;23.260;2023-12-29T01:24:42;70.13;;;42.53;;
6432;SDS011;3249;42.690;23.260;2023-12-29T01:27:11;62.90;;;42.03;;
6432;SDS011;3249;42.690;23.260;2023-12-29T01:29:40;63.30;;;38.53;;
6432;SDS011;3249;42.690;23.260;2023-12-29T01:32:10;62.97;;;40.53;;
6432;SDS011;3249;42.690;23.260;2023-12-29T01:34:42;67.20;;;40.00;;
6432;SDS011;3249;42.690;23.260;2023-12-29T01:37:13;67.60;;;43.50;;
6432;SDS011;3249;42.690;23.260;2023-12-29T01:39:42;58.50;;;37.53;;
6432;SDS011;3249;42.690;23.260;2023-12-29T01:42:11;60.57;;;39.30;;
6432;SDS011;3249;42.690;23.260;2023-12-29T01:44:40;58.70;;;38.33;;
6432;SDS011;3249;42.690;23.260;2023-12-29T01:47:11;61.77;;;40.30;;
6432;SDS011;3249;42.690;23.260;2023-12-29T01:49:46;59.93;;;37.53;;
6432;SDS011;3249;42.690;23.260;2023-12-29T01:52:17;54.33;;;38.00;;
6432;SDS011;3249;42.690;23.260;2023-12-29T01:54:47;62.27;;;40.07;;
6432;SDS011;3249;42.690;23.260;2023-12-29T01:57:18;54.47;;;37.27;;
6432;SDS011;3249;42.690;23.260;2023-12-29T01:59:49;56.93;;;35.10;;
6432;SDS011;3249;42.690;23.260;2023-12-29T02:02:18;57.67;;;35.67;;
6432;SDS011;3249;42.690;23.260;2023-12-29T02:04:50;56.57;;;36.57;;
6432;SDS011;3249;42.690;23.260;2023-12-29T02:07:19;56.23;;;35.87;;
6432;SDS011;3249;42.690;23.260;2023-12-29T02:09:50;49.23;;;35.73;;
6432;SDS011;3249;42.690;23.260;2023-12-29T02:12:21;53.33;;;36.50;;
6432;SDS011;3249;42.690;23.260;2023-12-29T02:14:50;55.47;;;37.27;;
6432;SDS011;3249;42.690;23.260;2023-12-29T02:17:21;49.30;;;35.27;;
6432;SDS011;3249;42.690;23.260;2023-12-29T02:19:56;48.03;;;34.47;;
6432;SDS011;3249;42.690;23.260;2023-12-29T02:22:28;46.17;;;33.23;;
6432;SDS011;3249;42.690;23.260;2023-12-29T02:24:59;53.97;;;34.07;;
6432;SDS011;3249;42.690;23.260;2023-12-29T02:27:31;52.80;;;35.80;;
6432;SDS011;3249;42.690;23.260;2023-12-29T02:30:10;47.37;;;34.13;;
6432;SDS011;3249;42.690;23.260;2023-12-29T02:32:45;45.93;;;33.57;;
6432;SDS011;3249;42.690;23.260;2023-12-29T02:35:19;51.83;;;34.57;;
6432;SDS011;3249;42.690;23.260;2023-12-29T02:37:52;47.30;;;32.77;;
6432;SDS011;3249;42.690;23.260;2023-12-29T02:40:25;54.17;;;34.53;;
6432;SDS011;3249;42.690;23.260;2023-12-29T02:42:55;58.10;;;40.40;;
6432;SDS011;3249;42.690;23.260;2023-12-29T02:45:25;55.93;;;38.33;;
6432;SDS011;3249;42.690;23.260;2023-12-29T02:47:55;67.83;;;44.63;;
6432;SDS011;3249;42.690;23.260;2023-12-29T02:50:25;61.10;;;39.37;;
6432;SDS011;3249;42.690;23.260;2023-12-29T02:52:54;55.50;;;37.47;;
6432;SDS011;3249;42.690;23.260;2023-12-29T02:55:26;50.23;;;34.53;;
6432;SDS011;3249;42.690;23.260;2023-12-29T02:57:56;52.10;;;33.80;;
6432;SDS011;3249;42.690;23.260;2023-12-29T03:00:26;51.63;;;36.40;;
6432;SDS011;3249;42.690;23.260;2023-12-29T03:02:55;63.50;;;39.63;;
6432;SDS011;3249;42.690;23.260;2023-12-29T03:05:24;59.57;;;39.77;;
6432;SDS011;3249;42.690;23.260;2023-12-29T03:07:53;57.23;;;37.00;;
6432;SDS011;3249;42.690;23.260;2023-12-29T03:10:25;61.47;;;37.93;;
6432;SDS011;3249;42.690;23.260;2023-12-29T03:12:56;62.10;;;40.17;;
6432;SDS011;3249;42.690;23.260;2023-12-29T03:15:25;59.53;;;42.00;;
6432;SDS011;3249;42.690;23.260;2023-12-29T03:17:54;64.27;;;43.17;;
6432;SDS011;3249;42.690;23.260;2023-12-29T03:20:23;63.67;;;42.87;;
6432;SDS011;3249;42.690;23.260;2023-12-29T03:22:54;64.50;;;43.70;;
6432;SDS011;3249;42.690;23.260;2023-12-29T03:25:26;66.70;;;43.63;;
6432;SDS011;3249;42.690;23.260;2023-12-29T03:27:55;65.10;;;44.87;;
6432;SDS011;3249;42.690;23.260;2023-12-29T03:30:26;59.00;;;41.67;;
6432;SDS011;3249;42.690;23.260;2023-12-29T03:32:55;70.90;;;45.27;;
6432;SDS011;3249;42.690;23.260;2023-12-29T03:35:24;63.43;;;40.37;;
6432;SDS011;3249;42.690;23.260;2023-12-29T03:37:53;61.10;;;41.30;;
6432;SDS011;3249;42.690;23.260;2023-12-29T03:40:26;63.50;;;42.47;;
6432;SDS011;3249;42.690;23.260;2023-12-29T03:42:56;57.03;;;37.63;;
6432;SDS011;3249;42.690;23.260;2023-12-29T03:45:25;65.87;;;41.47;;
6432;SDS011;3249;42.690;23.260;2023-12-29T03:47:54;55.80;;;38.90;;
6432;SDS011;3249;42.690;23.260;2023-12-29T03:50:23;60.17;;;39.93;;
6432;SDS011;3249;42.690;23.260;2023-12-29T03:52:54;55.63;;;38.17;;
6432;SDS011;3249;42.690;23.260;2023-12-29T03:55:23;74.97;;;47.23;;
6432;SDS011;3249;42.690;23.260;2023-12-29T03:57:55;83.07;;;51.53;;
6432;SDS011;3249;42.690;23.260;2023-12-29T04:00:22;72.50;;;47.40;;
6432;SDS011;3249;42.690;23.260;2023-12-29T04:02:51;73.23;;;47.87;;
6432;SDS011;3249;42.690;23.260;2023-12-29T04:05:21;63.83;;;43.60;;
6432;SDS011;3249;42.690;23.260;2023-12-29T04:07:50;59.63;;;40.07;;
6432;SDS011;3249;42.690;23.260;2023-12-29T04:10:20;70.90;;;43.17;;
6432;SDS011;3249;42.690;23.260;2023-12-29T04:12:51;70.37;;;42.10;;
6432;SDS011;3249;42.690;23.260;2023-12-29T04:15:21;62.17;;;40.90;;
6432;SDS011;3249;42.690;23.260;2023-12-29T04:17:50;61.07;;;39.90;;
6432;SDS011;3249;42.690;23.260;2023-12-29T04:20:19;66.57;;;44.00;;
6432;SDS011;3249;42.690;23.260;2023-12-29T04:22:50;63.13;;;44.67;;
6432;SDS011;3249;42.690;23.260;2023-12-29T04:25:19;64.33;;;44.83;;
6432;SDS011;3249;42.690;23.260;2023-12-29T04:27:51;67.27;;;43.13;;
6432;SDS011;3249;42.690;23.260;2023-12-29T04:30:20;68.57;;;44.77;;
6432;SDS011;3249;42.690;23.260;2023-12-29T04:32:50;62.63;;;39.90;;
6432;SDS011;3249;42.690;23.260;2023-12-29T04:35:19;67.97;;;40.17;;
6432;SDS011;3249;42.690;23.260;2023-12-29T04:37:49;57.73;;;38.80;;
6432;SDS011;3249;42.690;23.260;2023-12-29T04:40:19;63.43;;;39.97;;
6432;SDS011;3249;42.690;23.260;2023-12-29T04:42:51;60.40;;;40.03;;
6432;SDS011;3249;42.690;23.260;2023-12-29T04:45:21;54.40;;;36.73;;
6432;SDS011;3249;42.690;23.260;2023-12-29T04:47:50;59.67;;;39.07;;
6432;SDS011;3249;42.690;23.260;2023-12-29T04:50:19;64.93;;;40.03;;
6432;SDS011;3249;42.690;23.260;2023-12-29T04:52:49;63.73;;;41.07;;
6432;SDS011;3249;42.690;23.260;2023-12-29T04:55:18;66.13;;;41.80;;
6432;SDS011;3249;42.690;23.260;2023-12-29T04:57:47;61.43;;;39.33;;
6432;SDS011;3249;42.690;23.260;2023-12-29T05:00:20;61.23;;;41.57;;
6432;SDS011;3249;42.690;23.260;2023-12-29T05:02:50;70.37;;;44.60;;
6432;SDS011;3249;42.690;23.260;2023-12-29T05:05:19;69.03;;;46.40;;
6432;SDS011;3249;42.690;23.260;2023-12-29T05:07:48;71.53;;;47.23;;
6432;SDS011;3249;42.690;23.260;2023-12-29T05:10:17;68.17;;;44.23;;
6432;SDS011;3249;42.690;23.260;2023-12-29T05:12:51;65.80;;;44.20;;
6432;SDS011;3249;42.690;23.260;2023-12-29T05:15:22;71.13;;;46.43;;
6432;SDS011;3249;42.690;23.260;2023-12-29T05:17:52;75.27;;;48.17;;
6432;SDS011;3249;42.690;23.260;2023-12-29T05:20:21;93.53;;;62.47;;
6432;SDS011;3249;42.690;23.260;2023-12-29T05:22:50;143.67;;;96.17;;
6432;SDS011;3249;42.690;23.260;2023-12-29T05:25:20;134.33;;;86.20;;
6432;SDS011;3249;42.690;23.260;2023-12-29T05:27:49;319.53;;;169.73;;
6432;SDS011;3249;42.690;23.260;2023-12-29T05:30:19;113.43;;;73.83;;
6432;SDS011;3249;42.690;23.260;2023-12-29T05:32:50;130.97;;;78.30;;
6432;SDS011;3249;42.690;23.260;2023-12-29T05:35:20;141.80;;;93.90;;
6432;SDS011;3249;42.690;23.260;2023-12-29T05:37:50;96.27;;;58.10;;
6432;SDS011;3249;42.690;23.260;2023-12-29T05:40:19;90.83;;;59.17;;
6432;SDS011;3249;42.690;23.260;2023-12-29T05:42:49;100.17;;;61.77;;
6432;SDS011;3249;42.690;23.260;2023-12-29T05:45:18;83.00;;;53.10;;
6432;SDS011;3249;42.690;23.260;2023-12-29T05:47:47;73.67;;;48.70;;
6432;SDS011;3249;42.690;23.260;2023-12-29T05:50:19;67.03;;;42.57;;
6432;SDS011;3249;42.690;23.260;2023-12-29T05:52:50;72.33;;;45.20;;
6432;SDS011;3249;42.690;23.260;2023-12-29T05:55:19;69.33;;;42.90;;
6432;SDS011;3249;42.690;23.260;2023-12-29T05:57:49;61.43;;;41.63;;
6432;SDS011;3249;42.690;23.260;2023-12-29T06:00:20;61.00;;;42.23;;
6432;SDS011;3249;42.690;23.260;2023-12-29T06:02:52;70.33;;;45.77;;
6432;SDS011;3249;42.690;23.260;2023-12-29T06:05:21;78.37;;;50.37;;
6432;SDS011;3249;42.690;23.260;2023-12-29T06:07:51;90.03;;;56.47;;
6432;SDS011;3249;42.690;23.260;2023-12-29T06:10:20;90.70;;;61.20;;
6432;SDS011;3249;42.690;23.260;2023-12-29T06:12:50;94.60;;;61.50;;
6432;SDS011;3249;42.690;23.260;2023-12-29T06:15:22;104.00;;;67.23;;
6432;SDS011;3249;42.690;23.260;2023-12-29T06:17:54;104.33;;;64.93;;
6432;SDS011;3249;42.690;23.260;2023-12-29T06:20:24;129.60;;;81.27;;
6432;SDS011;3249;42.690;23.260;2023-12-29T06:22:54;136.73;;;95.17;;
6432;SDS011;3249;42.690;23.260;2023-12-29T06:25:27;136.47;;;86.33;;
6432;SDS011;3249;42.690;23.260;2023-12-29T06:27:58;153.40;;;98.30;;
6432;SDS011;3249;42.690;23.260;2023-12-29T06:30:32;118.50;;;82.70;;
6432;SDS011;3249;42.690;23.260;2023-12-29T06:33:04;107.07;;;75.13;;
6432;SDS011;3249;42.690;23.260;2023-12-29T06:35:34;108.60;;;75.73;;
6432;SDS011;3249;42.690;23.260;2023-12-29T06:38:04;97.03;;;67.00;;
6432;SDS011;3249;42.690;23.260;2023-12-29T06:40:35;92.93;;;58.27;;
6432;SDS011;3249;42.690;23.260;2023-12-29T06:43:05;97.43;;;65.33;;
6432;SDS011;3249;42.690;23.260;2023-12-29T06:45:36;95.00;;;62.33;;
6432;SDS011;3249;42.690;23.260;2023-12-29T06:48:08;91.70;;;60.73;;
6432;SDS011;3249;42.690;23.260;2023-12-29T06:50:39;92.53;;;61.23;;
6432;SDS011;3249;42.690;23.260;2023-12-29T06:53:08;75.47;;;48.03;;
6432;SDS011;3249;42.690;23.260;2023-12-29T06:55:38;77.33;;;49.17;;
6432;SDS011;3249;42.690;23.260;2023-12-29T06:58:10;71.73;;;46.67;;
6432;SDS011;3249;42.690;23.260;2023-12-29T07:00:39;64.60;;;41.83;;
6432;SDS011;3249;42.690;23.260;2023-12-29T07:03:15;73.03;;;46.63;;
6432;SDS011;3249;42.690;23.260;2023-12-29T07:05:45;66.00;;;46.50;;
6432;SDS011;3249;42.690;23.260;2023-12-29T07:08:14;72.23;;;48.27;;
6432;SDS011;3249;42.690;23.260;2023-12-29T07:10:44;77.73;;;49.80;;
6432;SDS011;3249;42.690;23.260;2023-12-29T07:13:17;81.10;;;51.00;;
6432;SDS011;3249;42.690;23.260;2023-12-29T07:15:46;76.47;;;52.67;;
6432;SDS011;3249;42.690;23.260;2023-12-29T07:18:22;72.97;;;51.33;;
6432;SDS011;3249;42.690;23.260;2023-12-29T07:20:51;85.53;;;56.80;;
6432;SDS011;3249;42.690;23.260;2023-12-29T07:23:21;121.93;;;80.97;;
6432;SDS011;3249;42.690;23.260;2023-12-29T07:25:51;137.07;;;88.53;;
6432;SDS011;3249;42.690;23.260;2023-12-29T07:28:21;129.80;;;85.27;;
6432;SDS011;3249;42.690;23.260;2023-12-29T07:30:53;120.80;;;78.33;;
6432;SDS011;3249;42.690;23.260;2023-12-29T07:33:26;135.63;;;88.67;;
6432;SDS011;3249;42.690;23.260;2023-12-29T07:35:55;131.50;;;88.20;;
6432;SDS011;3249;42.690;23.260;2023-12-29T07:38:25;109.83;;;72.67;;
6432;SDS011;3249;42.690;23.260;2023-12-29T07:40:54;119.70;;;80.10;;
6432;SDS011;3249;42.690;23.260;2023-12-29T07:43:30;103.60;;;71.40;;
6432;SDS011;3249;42.690;23.260;2023-12-29T07:46:03;97.73;;;65.03;;
6432;SDS011;3249;42.690;23.260;2023-12-29T07:48:38;98.13;;;62.40;;
6432;SDS011;3249;42.690;23.260;2023-12-29T07:51:08;84.90;;;59.40;;
6432;SDS011;3249;42.690;23.260;2023-12-29T07:53:39;85.70;;;56.20;;
6432;SDS011;3249;42.690;23.260;2023-12-29T07:56:11;85.47;;;57.60;;
6432;SDS011;3249;42.690;23.260;2023-12-29T07:58:40;80.43;;;56.10;;
6432;SDS011;3249;42.690;23.260;2023-12-29T08:01:09;84.33;;;58.27;;
6432;SDS011;3249;42.690;23.260;2023-12-29T08:03:41;88.50;;;56.93;;
6432;SDS011;3249;42.690;23.260;2023-12-29T08:06:11;77.93;;;55.50;;
6432;SDS011;3249;42.690;23.260;2023-12-29T08:08:41;85.47;;;57.37;;
6432;SDS011;3249;42.690;23.260;2023-12-29T08:11:14;105.20;;;71.67;;
6432;SDS011;3249;42.690;23.260;2023-12-29T08:13:44;130.53;;;91.07;;
6432;SDS011;3249;42.690;23.260;2023-12-29T08:16:15;133.53;;;91.23;;
6432;SDS011;3249;42.690;23.260;2023-12-29T08:18:48;134.63;;;90.60;;
6432;SDS011;3249;42.690;23.260;2023-12-29T08:21:18;213.17;;;142.00;;
6432;SDS011;3249;42.690;23.260;2023-12-29T08:23:48;205.13;;;138.93;;
6432;SDS011;3249;42.690;23.260;2023-12-29T08:26:19;209.17;;;139.23;;
6432;SDS011;3249;42.690;23.260;2023-12-29T08:28:48;205.30;;;138.17;;
6432;SDS011;3249;42.690;23.260;2023-12-29T08:31:18;265.20;;;192.97;;
6432;SDS011;3249;42.690;23.260;2023-12-29T08:33:51;231.70;;;168.00;;
6432;SDS011;3249;42.690;23.260;2023-12-29T08:36:20;203.97;;;148.07;;
6432;SDS011;3249;42.690;23.260;2023-12-29T08:38:50;171.70;;;121.53;;
6432;SDS011;3249;42.690;23.260;2023-12-29T08:41:22;190.80;;;122.00;;
6432;SDS011;3249;42.690;23.260;2023-12-29T08:43:51;172.37;;;110.33;;
6432;SDS011;3249;42.690;23.260;2023-12-29T08:46:21;159.40;;;106.80;;
6432;SDS011;3249;42.690;23.260;2023-12-29T08:48:53;181.67;;;118.80;;
6432;SDS011;3249;42.690;23.260;2023-12-29T08:51:23;155.10;;;110.43;;
6432;SDS011;3249;42.690;23.260;2023-12-29T08:53:53;148.57;;;98.43;;
6432;SDS011;3249;42.690;23.260;2023-12-29T08:56:22;148.87;;;100.20;;
6432;SDS011;3249;42.690;23.260;2023-12-29T08:58:52;134.83;;;96.00;;
6432;SDS011;3249;42.690;23.260;2023-12-29T09:01:21;149.33;;;104.20;;
6432;SDS011;3249;42.690;23.260;2023-12-29T09:03:55;152.30;;;104.83;;
6432;SDS011;3249;42.690;23.260;2023-12-29T09:06:26;134.83;;;95.33;;
6432;SDS011;3249;42.690;23.260;2023-12-29T09:08:55;133.90;;;93.57;;
6432;SDS011;3249;42.690;23.260;2023-12-29T09:11:24;140.30;;;94.30;;
6432;SDS011;3249;42.690;23.260;2023-12-29T09:13:54;137.60;;;86.37;;
6432;SDS011;3249;42.690;23.260;2023-12-29T09:16:23;125.17;;;86.17;;
6432;SDS011;3249;42.690;23.260;2023-12-29T09:18:56;119.87;;;81.63;;
6432;SDS011;3249;42.690;23.260;2023-12-29T09:21:25;119.53;;;76.20;;
6432;SDS011;3249;42.690;23.260;2023-12-29T09:23:54;110.23;;;75.83;;
6432;SDS011;3249;42.690;23.260;2023-12-29T09:26:24;115.20;;;76.10;;
6432;SDS011;3249;42.690;23.260;2023-12-29T09:28:53;121.53;;;79.17;;
6432;SDS011;3249;42.690;23.260;2023-12-29T09:31:22;113.50;;;76.70;;
6432;SDS011;3249;42.690;23.260;2023-12-29T09:33:52;113.60;;;80.10;;
6432;SDS011;3249;42.690;23.260;2023-12-29T09:36:24;118.03;;;77.67;;
6432;SDS011;3249;42.690;23.260;2023-12-29T09:38:54;109.57;;;76.63;;
6432;SDS011;3249;42.690;23.260;2023-12-29T09:41:23;119.10;;;78.77;;
6432;SDS011;3249;42.690;23.260;2023-12-29T09:43:54;113.93;;;73.57;;
6432;SDS011;3249;42.690;23.260;2023-12-29T09:46:25;104.33;;;70.90;;
6432;SDS011;3249;42.690;23.260;2023-12-29T09:48:59;122.97;;;85.93;;
6432;SDS011;3249;42.690;23.260;2023-12-29T09:51:35;155.90;;;113.37;;
6432;SDS011;3249;42.690;23.260;2023-12-29T09:54:05;210.43;;;156.10;;
6432;SDS011;3249;42.690;23.260;2023-12-29T09:56:38;154.73;;;108.23;;
6432;SDS011;3249;42.690;23.260;2023-12-29T09:59:08;140.93;;;98.97;;
6432;SDS011;3249;42.690;23.260;2023-12-29T10:01:38;104.17;;;71.93;;
6432;SDS011;3249;42.690;23.260;2023-12-29T10:04:11;104.33;;;70.40;;
6432;SDS011;3249;42.690;23.260;2023-12-29T10:06:47;101.43;;;67.87;;
6432;SDS011;3249;42.690;23.260;2023-12-29T10:09:18;93.17;;;63.07;;
6432;SDS011;3249;42.690;23.260;2023-12-29T10:11:54;98.43;;;63.63;;
6432;SDS011;3249;42.690;23.260;2023-12-29T10:14:24;106.83;;;68.97;;
6432;SDS011;3249;42.690;23.260;2023-12-29T10:17:12;106.20;;;66.30;;
6432;SDS011;3249;42.690;23.260;2023-12-29T10:19:49;102.93;;;67.00;;
6432;SDS011;3249;42.690;23.260;2023-12-29T10:22:33;93.43;;;62.93;;
6432;SDS011;3249;42.690;23.260;2023-12-29T10:25:16;90.17;;;57.07;;
6432;SDS011;3249;42.690;23.260;2023-12-29T10:27:46;84.80;;;59.73;;
6432;SDS011;3249;42.690;23.260;2023-12-29T10:30:20;89.50;;;55.40;;
6432;SDS011;3249;42.690;23.260;2023-12-29T10:32:49;82.90;;;58.20;;
6432;SDS011;3249;42.690;23.260;2023-12-29T10:35:20;99.30;;;65.27;;
6432;SDS011;3249;42.690;23.260;2023-12-29T10:37:51;97.03;;;62.47;;
6432;SDS011;3249;42.690;23.260;2023-12-29T10:40:21;102.73;;;64.77;;
6432;SDS011;3249;42.690;23.260;2023-12-29T10:42:53;88.03;;;60.03;;
6432;SDS011;3249;42.690;23.260;2023-12-29T10:45:23;91.17;;;63.10;;
6432;SDS011;3249;42.690;23.260;2023-12-29T10:47:53;87.87;;;61.10;;
6432;SDS011;3249;42.690;23.260;2023-12-29T10:50:22;87.90;;;61.47;;
6432;SDS011;3249;42.690;23.260;2023-12-29T10:55:44;86.97;;;60.93;;
6432;SDS011;3249;42.690;23.260;2023-12-29T10:58:15;87.60;;;60.50;;
6432;SDS011;3249;42.690;23.260;2023-12-29T11:00:47;84.67;;;61.87;;
6432;SDS011;3249;42.690;23.260;2023-12-29T11:03:17;79.67;;;57.63;;
6432;SDS011;3249;42.690;23.260;2023-12-29T11:05:46;83.30;;;56.03;;
6432;SDS011;3249;42.690;23.260;2023-12-29T11:08:22;86.83;;;57.90;;
6432;SDS011;3249;42.690;23.260;2023-12-29T11:10:51;84.73;;;63.13;;
6432;SDS011;3249;42.690;23.260;2023-12-29T11:13:22;92.13;;;65.50;;
6432;SDS011;3249;42.690;23.260;2023-12-29T11:15:53;119.27;;;77.00;;
6432;SDS011;3249;42.690;23.260;2023-12-29T11:18:23;145.17;;;104.27;;
6432;SDS011;3249;42.690;23.260;2023-12-29T11:20:53;143.27;;;103.30;;
6432;SDS011;3249;42.690;23.260;2023-12-29T11:23:31;141.40;;;97.87;;
6432;SDS011;3249;42.690;23.260;2023-12-29T11:26:00;133.70;;;92.70;;
6432;SDS011;3249;42.690;23.260;2023-12-29T11:28:33;135.47;;;90.07;;
6432;SDS011;3249;42.690;23.260;2023-12-29T11:31:03;123.00;;;79.27;;
6432;SDS011;3249;42.690;23.260;2023-12-29T11:33:35;126.87;;;88.40;;
6432;SDS011;3249;42.690;23.260;2023-12-29T11:36:11;121.83;;;82.07;;
6432;SDS011;3249;42.690;23.260;2023-12-29T11:38:54;109.53;;;75.20;;
6432;SDS011;3249;42.690;23.260;2023-12-29T11:41:30;106.57;;;72.70;;
6432;SDS011;3249;42.690;23.260;2023-12-29T11:44:09;109.70;;;73.27;;
6432;SDS011;3249;42.690;23.260;2023-12-29T11:46:40;110.43;;;71.87;;
6432;SDS011;3249;42.690;23.260;2023-12-29T11:49:12;108.10;;;73.90;;
6432;SDS011;3249;42.690;23.260;2023-12-29T11:51:42;102.50;;;71.60;;
6432;SDS011;3249;42.690;23.260;2023-12-29T11:54:23;108.40;;;72.03;;
6432;SDS011;3249;42.690;23.260;2023-12-29T11:56:55;119.80;;;74.23;;
6432;SDS011;3249;42.690;23.260;2023-12-29T11:59:25;109.40;;;68.50;;
6432;SDS011;3249;42.690;23.260;2023-12-29T12:01:55;103.73;;;67.13;;
6432;SDS011;3249;42.690;23.260;2023-12-29T12:04:36;97.50;;;69.47;;
6432;SDS011;3249;42.690;23.260;2023-12-29T12:07:07;110.67;;;67.60;;
6432;SDS011;3249;42.690;23.260;2023-12-29T12:09:43;105.03;;;65.53;;
6432;SDS011;3249;42.690;23.260;2023-12-29T12:12:15;104.10;;;63.60;;
6432;SDS011;3249;42.690;23.260;2023-12-29T12:18:03;97.40;;;63.33;;
6432;SDS011;3249;42.690;23.260;2023-12-29T12:20:35;98.37;;;63.47;;
6432;SDS011;3249;42.690;23.260;2023-12-29T12:23:06;94.90;;;58.83;;
6432;SDS011;3249;42.690;23.260;2023-12-29T12:25:42;92.03;;;59.70;;
6432;SDS011;3249;42.690;23.260;2023-12-29T12:28:14;83.97;;;53.50;;
6432;SDS011;3249;42.690;23.260;2023-12-29T12:30:44;73.50;;;50.90;;
6432;SDS011;3249;42.690;23.260;2023-12-29T12:33:13;67.30;;;44.87;;
6432;SDS011;3249;42.690;23.260;2023-12-29T12:35:42;37.67;;;26.20;;
6432;SDS011;3249;42.690;23.260;2023-12-29T12:38:14;21.83;;;15.23;;
6432;SDS011;3249;42.690;23.260;2023-12-29T12:40:51;24.40;;;15.43;;
6432;SDS011;3249;42.690;23.260;2023-12-29T12:43:20;21.13;;;14.97;;
6432;SDS011;3249;42.690;23.260;2023-12-29T12:45:58;20.77;;;16.03;;
6432;SDS011;3249;42.690;23.260;2023-12-29T12:48:32;27.20;;;16.53;;
6432;SDS011;3249;42.690;23.260;2023-12-29T12:51:05;22.63;;;16.97;;
6432;SDS011;3249;42.690;23.260;2023-12-29T12:53:34;23.10;;;16.17;;
6432;SDS011;3249;42.690;23.260;2023-12-29T12:56:13;24.83;;;16.90;;
6432;SDS011;3249;42.690;23.260;2023-12-29T12:58:43;24.77;;;18.33;;
6432;SDS011;3249;42.690;23.260;2023-12-29T13:01:13;29.80;;;21.30;;
6432;SDS011;3249;42.690;23.260;2023-12-29T13:03:42;28.17;;;19.27;;
6432;SDS011;3249;42.690;23.260;2023-12-29T13:06:12;23.87;;;17.57;;
6432;SDS011;3249;42.690;23.260;2023-12-29T13:08:47;24.57;;;17.40;;
6432;SDS011;3249;42.690;23.260;2023-12-29T13:11:21;19.83;;;16.50;;
6432;SDS011;3249;42.690;23.260;2023-12-29T13:13:51;20.87;;;14.33;;
6432;SDS011;3249;42.690;23.260;2023-12-29T13:16:29;20.53;;;14.63;;
6432;SDS011;3249;42.690;23.260;2023-12-29T13:19:14;17.87;;;11.97;;
6432;SDS011;3249;42.690;23.260;2023-12-29T13:21:47;17.50;;;13.37;;
6432;SDS011;3249;42.690;23.260;2023-12-29T13:24:20;20.33;;;12.97;;
6432;SDS011;3249;42.690;23.260;2023-12-29T13:26:54;21.27;;;13.50;;
6432;SDS011;3249;42.690;23.260;2023-12-29T13:29:26;18.27;;;13.37;;
6432;SDS011;3249;42.690;23.260;2023-12-29T13:32:00;30.07;;;23.13;;
6432;SDS011;3249;42.690;23.260;2023-12-29T13:34:37;24.30;;;16.83;;
6432;SDS011;3249;42.690;23.260;2023-12-29T13:37:17;18.43;;;13.07;;
6432;SDS011;3249;42.690;23.260;2023-12-29T13:39:54;14.93;;;9.67;;
6432;SDS011;3249;42.690;23.260;2023-12-29T13:42:32;17.97;;;10.40;;
6432;SDS011;3249;42.690;23.260;2023-12-29T13:45:04;17.93;;;10.27;;
6432;SDS011;3249;42.690;23.260;2023-12-29T13:47:37;14.77;;;9.93;;
6432;SDS011;3249;42.690;23.260;2023-12-29T13:50:08;14.70;;;10.00;;
6432;SDS011;3249;42.690;23.260;2023-12-29T13:52:38;13.90;;;9.47;;
6432;SDS011;3249;42.690;23.260;2023-12-29T13:55:22;12.80;;;9.20;;
6432;SDS011;3249;42.690;23.260;2023-12-29T13:57:55;13.37;;;9.83;;
6432;SDS011;3249;42.690;23.260;2023-12-29T14:00:26;12.27;;;8.67;;
6432;SDS011;3249;42.690;23.260;2023-12-29T14:03:06;14.97;;;10.87;;
6432;SDS011;3249;42.690;23.260;2023-12-29T14:05:47;16.83;;;9.13;;
6432;SDS011;3249;42.690;23.260;2023-12-29T14:08:23;14.23;;;9.00;;
6432;SDS011;3249;42.690;23.260;2023-12-29T14:10:55;14.77;;;8.77;;
6432;SDS011;3249;42.690;23.260;2023-12-29T14:13:27;10.83;;;7.30;;
6432;SDS011;3249;42.690;23.260;2023-12-29T14:15:57;14.00;;;7.87;;
6432;SDS011;3249;42.690;23.260;2023-12-29T14:18:35;11.27;;;8.20;;
6432;SDS011;3249;42.690;23.260;2023-12-29T14:21:21;12.20;;;8.03;;
6432;SDS011;3249;42.690;23.260;2023-12-29T14:26:53;23.53;;;16.80;;
6432;SDS011;3249;42.690;23.260;2023-12-29T14:29:25;17.87;;;8.70;;
6432;SDS011;3249;42.690;23.260;2023-12-29T14:31:55;14.10;;;8.53;;
6432;SDS011;3249;42.690;23.260;2023-12-29T14:34:29;14.17;;;9.43;;
6432;SDS011;3249;42.690;23.260;2023-12-29T14:37:00;16.27;;;10.67;;
6432;SDS011;3249;42.690;23.260;2023-12-29T14:39:30;17.27;;;9.80;;
6432;SDS011;3249;42.690;23.260;2023-12-29T14:42:00;16.80;;;9.70;;
6432;SDS011;3249;42.690;23.260;2023-12-29T14:44:32;15.17;;;9.70;;
6432;SDS011;3249;42.690;23.260;2023-12-29T14:47:04;20.83;;;11.23;;
6432;SDS011;3249;42.690;23.260;2023-12-29T14:49:34;25.73;;;13.10;;
6432;SDS011;3249;42.690;23.260;2023-12-29T14:52:06;23.17;;;13.33;;
6432;SDS011;3249;42.690;23.260;2023-12-29T14:54:37;27.40;;;15.93;;
6432;SDS011;3249;42.690;23.260;2023-12-29T14:57:11;24.60;;;16.37;;
6432;SDS011;3249;42.690;23.260;2023-12-29T14:59:45;28.27;;;15.83;;
6432;SDS011;3249;42.690;23.260;2023-12-29T15:02:20;18.80;;;12.53;;
6432;SDS011;3249;42.690;23.260;2023-12-29T15:04:50;16.90;;;11.17;;